Time;durP1;ratioP1;P1;durP2;ratioP2;P2;SDS_P1;SDS_P2;PMS_P1;PMS_P2;Temp;Humidity;BMP_temperature;BMP_pressure;BME280_temperature;BME280_humidity;BME280_pressure;Samples;Min_cycle;Max_cycle;Signal;HPM_P1;HPM_P2
2022/01/22 00:01:45;;;;;;;;;;;0.50;99.90;;;;;;5052900;28;19916;-44
2022/01/22 00:04:10;;;;;;;;;;;0.50;99.90;;;;;;5053010;28;20252;-42
2022/01/22 00:06:36;;;;;;;;;;;0.60;99.90;;;;;;5053352;28;19916;-43
2022/01/22 00:09:03;;;;;;;;;;;0.60;99.90;;;;;;5052249;28;19908;-42
2022/01/22 00:11:35;;;;;;;;;;;0.80;99.90;;;;;;5052938;28;19955;-44
2022/01/22 00:16:44;;;;;;;;;;;0.70;99.90;;;;;;5054187;28;19920;-44
2022/01/22 00:19:10;;;;;;;;;;;0.70;99.90;;;;;;5056553;28;19913;-43
2022/01/22 00:21:36;;;;;;;;;;;0.70;99.90;;;;;;5056836;28;19909;-43
2022/01/22 00:24:02;;;;;;;;;;;0.70;99.90;;;;;;5056837;28;19921;-45
2022/01/22 00:26:28;;;;;;;;;;;0.70;99.90;;;;;;5056441;28;19912;-44
2022/01/22 00:28:53;;;;;;;;;;;0.80;99.90;;;;;;5056404;28;19916;-45
2022/01/22 00:31:19;;;;;;;;;;;0.80;99.90;;;;;;5056330;28;20352;-43
2022/01/22 00:33:45;;;;;;;;;;;0.70;99.90;;;;;;5038412;28;19913;-44
2022/01/22 00:36:10;;;;;;;;;;;0.70;99.90;;;;;;5056530;28;19916;-44
2022/01/22 00:38:36;;;;;;;;;;;0.60;99.90;;;;;;5056278;28;19963;-47
2022/01/22 00:41:01;;;;;;;;;;;0.70;99.90;;;;;;5055197;28;19975;-45
2022/01/22 00:43:27;;;;;;;;;;;0.70;99.90;;;;;;5056396;28;19943;-45
2022/01/22 00:45:52;;;;;;;;;;;0.60;99.90;;;;;;5056298;28;20011;-44
2022/01/22 00:48:18;;;;;;;;;;;0.70;99.90;;;;;;5056318;28;19917;-45
2022/01/22 00:50:44;;;;;;;;;;;0.70;99.90;;;;;;5056289;28;19915;-43
2022/01/22 00:53:09;;;;;;;;;;;0.80;99.90;;;;;;5056247;28;19913;-43
2022/01/22 00:55:35;;;;;;;;;;;0.80;99.90;;;;;;5055844;28;19917;-44
2022/01/22 00:58:01;;;;;;;;;;;0.70;99.90;;;;;;5055865;28;20287;-43
2022/01/22 01:00:26;;;;;;;;;;;0.80;99.90;;;;;;5056157;28;19909;-43
2022/01/22 01:02:52;;;;;;;;;;;0.90;99.90;;;;;;5055741;28;19916;-43
2022/01/22 01:05:17;;;;;;;;;;;0.80;99.90;;;;;;5055936;28;19982;-44
2022/01/22 01:07:43;;;;;;;;;;;0.70;99.90;;;;;;5055812;28;20003;-47
2022/01/22 01:10:13;;;;;;;;;;;0.70;99.90;;;;;;5055682;28;19916;-44
2022/01/22 01:12:40;;;;;;;;;;;0.70;99.90;;;;;;5055964;28;19917;-46
2022/01/22 01:17:58;;;;;;;;;;;0.80;99.90;;;;;;5055696;28;19913;-46
2022/01/22 01:34:10;;;;;;;;;;;0.80;99.90;;;;;;5055255;28;19920;-44
2022/01/22 01:36:36;;;;;;;;;;;0.90;99.90;;;;;;5055496;28;20268;-43
2022/01/22 01:39:04;;;;;;;;;;;1.00;99.90;;;;;;5055112;28;19912;-44
2022/01/22 01:41:43;;;;;;;;;;;0.90;99.90;;;;;;5055632;28;19951;-44
2022/01/22 01:44:09;;;;;;;;;;;0.90;99.90;;;;;;5055302;28;19908;-43
2022/01/22 01:46:35;;;;;;;;;;;0.90;99.90;;;;;;5055221;28;19909;-43
2022/01/22 01:49:02;;;;;;;;;;;0.80;99.90;;;;;;5055589;28;19915;-46
2022/01/22 01:51:31;;;;;;;;;;;0.90;99.90;;;;;;5054878;28;19909;-43
2022/01/22 01:54:24;;;;;;;;;;;0.90;99.90;;;;;;5054717;28;19913;-43
2022/01/22 01:59:38;;;;;;;;;;;0.90;99.90;;;;;;5055130;28;19959;-43
2022/01/22 02:02:04;;;;;;;;;;;0.90;99.90;;;;;;5054772;28;19909;-43
2022/01/22 02:04:30;;;;;;;;;;;0.90;99.90;;;;;;5054644;28;19913;-44
2022/01/22 02:06:56;;;;;;;;;;;0.90;99.90;;;;;;5054539;28;19915;-44
2022/01/22 02:09:22;;;;;;;;;;;1.00;99.90;;;;;;5055111;28;19916;-43
2022/01/22 02:11:56;;;;;;;;;;;1.00;99.90;;;;;;5054854;28;19909;-45
2022/01/22 02:25:14;;;;;;;;;;;1.00;99.90;;;;;;5054435;28;19928;-43
2022/01/22 02:27:40;;;;;;;;;;;0.90;99.90;;;;;;5054481;28;20314;-43
2022/01/22 02:30:06;;;;;;;;;;;1.00;99.90;;;;;;5054183;28;19909;-44
2022/01/22 02:33:03;;;;;;;;;;;1.00;99.90;;;;;;5054190;28;20370;-47
2022/01/22 02:35:41;;;;;;;;;;;1.00;99.90;;;;;;5052692;28;19917;-44
2022/01/22 02:38:14;;;;;;;;;;;1.10;99.90;;;;;;5054413;28;19920;-44
2022/01/22 02:40:50;;;;;;;;;;;1.10;99.90;;;;;;5053148;28;20375;-45
2022/01/22 02:43:16;;;;;;;;;;;1.10;99.90;;;;;;5054127;28;19955;-43
2022/01/22 02:45:43;;;;;;;;;;;1.10;99.90;;;;;;5053899;28;20314;-44
2022/01/22 02:48:09;;;;;;;;;;;1.10;99.90;;;;;;5054189;28;19931;-45
2022/01/22 02:50:35;;;;;;;;;;;1.10;99.90;;;;;;5054101;28;20418;-44
2022/01/22 02:53:02;;;;;;;;;;;1.20;99.90;;;;;;5054121;28;19908;-45
2022/01/22 02:55:27;;;;;;;;;;;1.20;99.90;;;;;;5054032;28;19913;-42
2022/01/22 02:57:53;;;;;;;;;;;1.10;99.90;;;;;;5053938;28;19913;-42
2022/01/22 03:00:22;;;;;;;;;;;1.10;99.90;;;;;;5053735;28;19916;-43
2022/01/22 03:02:48;;;;;;;;;;;1.10;99.90;;;;;;5053678;28;20328;-44
2022/01/22 03:05:14;;;;;;;;;;;1.10;99.90;;;;;;5035994;28;19909;-43
2022/01/22 03:07:41;;;;;;;;;;;1.10;99.90;;;;;;5053933;28;20275;-43
2022/01/22 03:10:08;;;;;;;;;;;1.10;99.90;;;;;;5053923;28;20359;-43
2022/01/22 03:21:01;;;;;;;;;;;1.10;99.90;;;;;;5016536;28;20004;-43
2022/01/22 03:29:06;;;;;;;;;;;1.20;99.90;;;;;;5053521;28;19959;-45
2022/01/22 03:31:32;;;;;;;;;;;1.20;99.90;;;;;;5053817;28;19909;-42
2022/01/22 03:33:58;;;;;;;;;;;1.20;99.90;;;;;;5053658;28;20274;-42
2022/01/22 03:36:24;;;;;;;;;;;1.20;99.90;;;;;;5053748;28;20356;-43
2022/01/22 03:38:50;;;;;;;;;;;1.20;99.90;;;;;;5053606;28;19913;-45
2022/01/22 03:41:16;;;;;;;;;;;1.20;99.90;;;;;;5053631;28;19961;-43
2022/01/22 03:43:41;;;;;;;;;;;1.10;99.90;;;;;;5053338;28;19909;-44
2022/01/22 03:46:07;;;;;;;;;;;1.10;99.90;;;;;;5053523;28;19934;-45
2022/01/22 03:48:33;;;;;;;;;;;1.10;99.90;;;;;;5053385;28;19909;-43
2022/01/22 03:50:58;;;;;;;;;;;1.10;99.90;;;;;;5053313;28;19909;-45
2022/01/22 03:53:24;;;;;;;;;;;1.10;99.90;;;;;;5056893;28;20266;-43
2022/01/22 03:58:15;;;;;;;;;;;1.10;99.90;;;;;;5057303;28;19913;-44
2022/01/22 04:00:40;;;;;;;;;;;1.00;99.90;;;;;;5057317;28;19913;-42
2022/01/22 04:06:16;;;;;;;;;;;0.90;99.90;;;;;;5057289;28;20004;-45
2022/01/22 04:08:39;;;;;;;;;;;0.70;99.90;;;;;;5056693;28;19913;-44
2022/01/22 04:11:09;;;;;;;;;;;0.60;99.90;;;;;;5056993;28;19908;-43
2022/01/22 04:13:35;;;;;;;;;;;0.50;99.90;;;;;;5039096;28;20343;-42
2022/01/22 04:16:01;;;;;;;;;;;0.60;99.90;;;;;;5056306;28;19920;-43
2022/01/22 04:26:53;;;;;;;;;;;0.50;99.90;;;;;;5036996;28;19916;-44
2022/01/22 04:29:19;;;;;;;;;;;0.50;99.90;;;;;;5036861;28;20012;-44
2022/01/22 04:31:45;;;;;;;;;;;0.50;99.90;;;;;;5036420;28;20459;-43
2022/01/22 04:34:10;;;;;;;;;;;0.50;99.90;;;;;;5036531;28;19917;-43
2022/01/22 04:36:36;;;;;;;;;;;0.50;99.90;;;;;;5049484;28;19913;-44
2022/01/22 04:39:02;;;;;;;;;;;0.50;99.90;;;;;;5056333;28;19909;-45
2022/01/22 04:41:27;;;;;;;;;;;0.50;99.90;;;;;;5038933;28;19909;-43
2022/01/22 04:43:58;;;;;;;;;;;0.50;99.90;;;;;;5044814;28;19920;-42
2022/01/22 04:46:36;;;;;;;;;;;0.40;99.90;;;;;;5055847;28;19909;-42
2022/01/22 04:49:11;;;;;;;;;;;0.50;99.90;;;;;;5049127;28;20276;-43
2022/01/22 04:57:05;;;;;;;;;;;0.60;99.90;;;;;;5036483;28;19936;-43
2022/01/22 04:59:31;;;;;;;;;;;0.60;99.90;;;;;;5052205;28;19908;-42
2022/01/22 05:01:56;;;;;;;;;;;0.60;99.90;;;;;;5042789;28;20283;-43
2022/01/22 05:04:22;;;;;;;;;;;0.50;99.90;;;;;;5017535;28;19959;-44
2022/01/22 05:06:47;;;;;;;;;;;0.60;99.90;;;;;;5036102;28;20241;-45
2022/01/22 05:09:13;;;;;;;;;;;0.60;99.90;;;;;;5035978;28;19909;-44
2022/01/22 05:11:38;;;;;;;;;;;0.60;99.90;;;;;;5035832;28;19909;-43
2022/01/22 05:14:04;;;;;;;;;;;0.70;99.90;;;;;;5035757;28;19913;-43
2022/01/22 05:16:30;;;;;;;;;;;0.60;99.90;;;;;;5055351;28;19913;-43
2022/01/22 05:19:24;;;;;;;;;;;0.60;99.90;;;;;;5055756;28;20282;-44
2022/01/22 05:21:43;;;;;;;;;;;0.60;99.90;;;;;;5041365;28;19905;-45
2022/01/22 05:24:13;;;;;;;;;;;0.70;99.90;;;;;;5035689;28;20370;-44
2022/01/22 05:32:21;;;;;;;;;;;0.70;99.90;;;;;;5035702;28;20395;-42
2022/01/22 05:37:13;;;;;;;;;;;0.70;99.90;;;;;;5053595;28;19932;-43
2022/01/22 05:39:39;;;;;;;;;;;0.70;99.90;;;;;;5037404;28;19909;-44
2022/01/22 05:42:05;;;;;;;;;;;0.60;99.90;;;;;;5046338;28;19996;-44
2022/01/22 05:44:31;;;;;;;;;;;0.60;99.90;;;;;;5035452;28;19910;-43
2022/01/22 05:47:02;;;;;;;;;;;0.70;99.90;;;;;;5041735;28;19920;-45
2022/01/22 05:49:29;;;;;;;;;;;0.70;99.90;;;;;;5055120;28;19923;-42
2022/01/22 05:51:57;;;;;;;;;;;0.60;99.90;;;;;;5053259;28;19951;-43
2022/01/22 05:59:39;;;;;;;;;;;0.70;99.90;;;;;;5055230;28;19955;-43
2022/01/22 06:02:12;;;;;;;;;;;0.50;99.90;;;;;;5055046;28;19909;-43
2022/01/22 06:04:38;;;;;;;;;;;0.60;99.90;;;;;;5055134;28;19909;-44
2022/01/22 06:07:04;;;;;;;;;;;0.70;99.90;;;;;;5054765;28;19915;-43
2022/01/22 06:09:32;;;;;;;;;;;0.60;99.90;;;;;;5054396;28;20260;-44
2022/01/22 06:14:49;;;;;;;;;;;0.70;99.90;;;;;;5023078;28;19916;-42
2022/01/22 06:17:14;;;;;;;;;;;0.60;99.90;;;;;;5054554;28;20306;-44
2022/01/22 06:19:40;;;;;;;;;;;0.60;99.90;;;;;;5054628;28;19951;-44
2022/01/22 06:22:05;;;;;;;;;;;0.80;99.90;;;;;;5054539;28;20410;-45
2022/01/22 06:24:31;;;;;;;;;;;0.80;99.90;;;;;;5054500;28;20355;-44
2022/01/22 06:26:57;;;;;;;;;;;0.80;99.90;;;;;;5054442;28;20339;-46
2022/01/22 06:29:22;;;;;;;;;;;0.80;99.90;;;;;;5054348;28;19912;-44
2022/01/22 06:31:47;;;;;;;;;;;0.80;99.90;;;;;;5054323;28;20010;-43
2022/01/22 06:34:13;;;;;;;;;;;0.90;99.90;;;;;;5053881;28;20455;-46
2022/01/22 06:36:39;;;;;;;;;;;0.80;99.90;;;;;;5054019;28;19913;-43
2022/01/22 06:39:13;;;;;;;;;;;0.90;99.90;;;;;;5054107;28;19912;-43
2022/01/22 06:41:44;;;;;;;;;;;0.90;99.90;;;;;;5054423;28;19909;-44
2022/01/22 06:44:14;;;;;;;;;;;0.90;99.90;;;;;;5053855;28;19913;-42
2022/01/22 06:46:40;;;;;;;;;;;0.90;99.90;;;;;;5054086;28;19916;-42
2022/01/22 06:49:06;;;;;;;;;;;0.80;99.90;;;;;;5054146;28;19919;-43
2022/01/22 06:51:33;;;;;;;;;;;1.00;99.90;;;;;;5054043;28;20323;-44
2022/01/22 06:53:58;;;;;;;;;;;0.80;99.90;;;;;;5053985;28;19935;-43
2022/01/22 06:56:25;;;;;;;;;;;0.90;99.90;;;;;;5053849;28;20351;-43
2022/01/22 06:58:50;;;;;;;;;;;0.90;99.90;;;;;;5053789;28;19912;-43
2022/01/22 07:01:16;;;;;;;;;;;0.90;99.90;;;;;;5036114;28;20256;-44
2022/01/22 07:03:42;;;;;;;;;;;1.10;99.90;;;;;;5053878;28;20263;-43
2022/01/22 07:06:08;;;;;;;;;;;1.00;99.90;;;;;;5053537;28;19915;-46
2022/01/22 07:08:34;;;;;;;;;;;1.00;99.90;;;;;;5035833;28;19909;-42
2022/01/22 07:11:00;;;;;;;;;;;1.00;99.90;;;;;;5053736;28;19919;-43
2022/01/22 07:13:25;;;;;;;;;;;0.90;99.90;;;;;;5053679;28;19909;-42
2022/01/22 07:15:51;;;;;;;;;;;1.00;99.90;;;;;;5053691;28;19920;-43
2022/01/22 07:18:16;;;;;;;;;;;1.10;99.90;;;;;;5053538;28;20344;-42
2022/01/22 07:20:43;;;;;;;;;;;1.00;99.90;;;;;;5053750;28;19909;-42
2022/01/22 07:23:32;;;;;;;;;;;1.10;99.90;;;;;;5035517;28;19920;-43
2022/01/22 07:25:57;;;;;;;;;;;1.10;99.90;;;;;;5053616;28;20277;-45
2022/01/22 07:28:23;;;;;;;;;;;1.10;99.90;;;;;;5057297;28;19948;-44
2022/01/22 07:30:48;;;;;;;;;;;1.00;99.90;;;;;;5057251;28;20373;-43
2022/01/22 07:33:14;;;;;;;;;;;1.10;99.90;;;;;;5057532;28;19916;-43
2022/01/22 07:35:40;;;;;;;;;;;1.00;99.90;;;;;;5057443;28;19920;-44
2022/01/22 07:38:06;;;;;;;;;;;1.00;99.90;;;;;;5056226;28;19961;-44
2022/01/22 07:40:31;;;;;;;;;;;0.90;99.90;;;;;;5056984;28;19909;-45
2022/01/22 07:42:57;;;;;;;;;;;0.90;99.90;;;;;;5057307;28;19909;-43
2022/01/22 07:45:23;;;;;;;;;;;0.90;99.90;;;;;;5046863;28;19909;-43
2022/01/22 07:47:48;;;;;;;;;;;0.90;99.90;;;;;;5036985;28;20390;-45
2022/01/22 07:50:14;;;;;;;;;;;0.90;99.90;;;;;;5037442;28;19909;-46
2022/01/22 07:52:39;;;;;;;;;;;0.90;99.90;;;;;;5052060;28;19939;-44
2022/01/22 07:55:06;;;;;;;;;;;1.00;99.90;;;;;;5055397;28;20366;-44
2022/01/22 07:57:32;;;;;;;;;;;0.90;99.90;;;;;;5054474;28;19942;-44
2022/01/22 07:59:58;;;;;;;;;;;0.90;99.90;;;;;;5036877;28;19932;-42
2022/01/22 08:02:23;;;;;;;;;;;0.90;99.90;;;;;;5044700;28;19908;-44
2022/01/22 08:04:48;;;;;;;;;;;0.80;99.90;;;;;;5035731;28;19909;-43
2022/01/22 08:07:14;;;;;;;;;;;0.80;99.90;;;;;;5037134;28;19932;-43
2022/01/22 08:09:40;;;;;;;;;;;0.90;99.90;;;;;;5039140;28;19908;-46
2022/01/22 08:12:06;;;;;;;;;;;0.90;99.90;;;;;;5055983;28;19905;-45
2022/01/22 08:14:32;;;;;;;;;;;0.90;99.90;;;;;;5040292;28;19920;-46
2022/01/22 08:16:57;;;;;;;;;;;0.90;99.90;;;;;;5055718;28;19913;-44
2022/01/22 08:19:23;;;;;;;;;;;0.90;99.90;;;;;;5044011;28;20365;-43
2022/01/22 08:21:48;;;;;;;;;;;1.00;99.90;;;;;;5056504;28;20358;-42
2022/01/22 08:24:15;;;;;;;;;;;1.00;99.90;;;;;;5054961;28;20366;-39
2022/01/22 08:26:48;;;;;;;;;;;1.00;99.90;;;;;;5056303;28;20014;-40
2022/01/22 08:29:14;;;;;;;;;;;1.00;99.90;;;;;;5054256;28;19908;-44
2022/01/22 08:36:55;;;;;;;;;;;1.00;99.90;;;;;;5055551;28;19924;-48
2022/01/22 08:39:21;;;;;;;;;;;1.00;99.90;;;;;;5045631;28;19913;-48
2022/01/22 08:41:47;;;;;;;;;;;1.00;99.90;;;;;;5055611;28;20354;-44
2022/01/22 08:44:13;;;;;;;;;;;1.00;99.90;;;;;;5056034;28;19924;-45
2022/01/22 08:46:38;;;;;;;;;;;1.00;99.90;;;;;;5048638;28;19963;-44
2022/01/22 08:49:05;;;;;;;;;;;1.00;99.90;;;;;;5036418;28;20314;-45
2022/01/22 08:51:32;;;;;;;;;;;1.00;99.90;;;;;;5018288;28;20015;-46
2022/01/22 08:54:00;;;;;;;;;;;0.90;99.90;;;;;;5039048;28;20350;-44
2022/01/22 08:56:25;;;;;;;;;;;1.00;99.90;;;;;;5035535;28;19913;-45
2022/01/22 08:58:51;;;;;;;;;;;1.00;99.90;;;;;;5053204;28;19912;-45
2022/01/22 09:01:16;;;;;;;;;;;1.00;99.90;;;;;;5054690;28;19967;-43
2022/01/22 09:03:42;;;;;;;;;;;0.90;99.90;;;;;;5053240;28;20004;-48
2022/01/22 09:06:08;;;;;;;;;;;1.00;99.90;;;;;;5042770;28;19913;-45
2022/01/22 09:08:34;;;;;;;;;;;1.10;99.90;;;;;;5051858;28;19917;-50
2022/01/22 09:10:59;;;;;;;;;;;1.00;99.90;;;;;;5055463;28;20391;-48
2022/01/22 09:13:25;;;;;;;;;;;1.00;99.90;;;;;;5054468;28;20019;-43
2022/01/22 09:15:53;;;;;;;;;;;1.00;99.90;;;;;;5038042;28;19917;-44
2022/01/22 09:18:19;;;;;;;;;;;1.10;99.90;;;;;;5052855;28;19973;-46
2022/01/22 09:21:01;;;;;;;;;;;1.10;99.90;;;;;;5053200;28;20003;-48
2022/01/22 09:23:27;;;;;;;;;;;1.20;99.90;;;;;;5053943;28;19917;-44
2022/01/22 09:25:53;;;;;;;;;;;1.20;99.90;;;;;;5046848;28;19949;-45
2022/01/22 09:28:18;;;;;;;;;;;1.20;99.90;;;;;;5035312;28;19982;-44
2022/01/22 09:30:45;;;;;;;;;;;1.20;99.90;;;;;;5017554;28;20323;-48
2022/01/22 09:33:11;;;;;;;;;;;1.20;99.90;;;;;;5035016;28;19909;-45
2022/01/22 09:35:36;;;;;;;;;;;1.20;99.90;;;;;;5034771;28;20017;-44
2022/01/22 09:38:02;;;;;;;;;;;1.20;99.90;;;;;;5034786;28;20011;-45
2022/01/22 09:40:28;;;;;;;;;;;1.10;99.90;;;;;;5034643;28;19915;-46
2022/01/22 09:42:54;;;;;;;;;;;1.10;99.90;;;;;;5034706;28;20008;-44
2022/01/22 09:45:21;;;;;;;;;;;1.20;99.90;;;;;;5035113;28;20332;-44
2022/01/22 09:47:48;;;;;;;;;;;1.20;99.90;;;;;;5034882;28;19906;-48
2022/01/22 09:50:15;;;;;;;;;;;1.30;99.90;;;;;;5034041;28;19931;-45
2022/01/22 09:52:41;;;;;;;;;;;1.20;99.90;;;;;;5034758;28;19912;-49
2022/01/22 09:55:07;;;;;;;;;;;1.20;99.90;;;;;;5034333;28;20271;-46
2022/01/22 09:57:35;;;;;;;;;;;1.10;99.90;;;;;;5034221;28;19958;-48
2022/01/22 10:00:01;;;;;;;;;;;1.20;99.90;;;;;;5016694;28;19974;-46
2022/01/22 10:02:26;;;;;;;;;;;1.10;99.90;;;;;;5034583;28;19909;-44
2022/01/22 10:04:52;;;;;;;;;;;1.20;99.90;;;;;;5034418;28;19906;-47
2022/01/22 10:07:21;;;;;;;;;;;1.30;99.90;;;;;;5034044;28;20331;-46
2022/01/22 10:10:06;;;;;;;;;;;1.20;99.90;;;;;;5033681;28;19905;-48
2022/01/22 10:12:42;;;;;;;;;;;1.20;99.90;;;;;;5033831;28;19912;-48
2022/01/22 10:15:18;;;;;;;;;;;1.20;99.90;;;;;;5034323;28;19920;-44
2022/01/22 10:17:53;;;;;;;;;;;1.30;99.90;;;;;;5033955;28;19916;-49
2022/01/22 10:20:24;;;;;;;;;;;1.30;99.90;;;;;;5034063;28;20000;-46
2022/01/22 10:22:51;;;;;;;;;;;1.30;99.90;;;;;;5033565;28;20477;-48
2022/01/22 10:25:20;;;;;;;;;;;1.30;99.90;;;;;;5033943;28;19975;-44
2022/01/22 10:27:54;;;;;;;;;;;1.40;99.90;;;;;;5034278;28;19906;-46
2022/01/22 10:30:21;;;;;;;;;;;1.40;99.90;;;;;;5033848;28;19949;-44
2022/01/22 10:32:51;;;;;;;;;;;1.50;99.90;;;;;;5016270;28;19920;-44
2022/01/22 10:35:23;;;;;;;;;;;1.30;99.90;;;;;;5033912;28;19909;-44
2022/01/22 10:37:53;;;;;;;;;;;1.40;99.90;;;;;;5033860;28;19924;-48
2022/01/22 10:40:22;;;;;;;;;;;1.40;99.90;;;;;;5033560;28;19905;-44
2022/01/22 10:42:48;;;;;;;;;;;1.50;99.90;;;;;;5033813;28;20189;-48
2022/01/22 10:45:22;;;;;;;;;;;1.40;99.90;;;;;;5033314;28;19905;-47
2022/01/22 10:47:48;;;;;;;;;;;1.30;99.90;;;;;;5015900;28;20359;-51
2022/01/22 10:50:21;;;;;;;;;;;1.40;99.90;;;;;;5033599;28;19925;-46
2022/01/22 10:52:53;;;;;;;;;;;1.50;99.90;;;;;;5033412;28;19905;-45
2022/01/22 10:55:19;;;;;;;;;;;1.50;99.90;;;;;;5033375;28;19909;-48
2022/01/22 10:58:04;;;;;;;;;;;1.40;99.90;;;;;;5033089;28;19955;-44
2022/01/22 11:00:29;;;;;;;;;;;1.40;99.90;;;;;;5035321;28;19905;-48
2022/01/22 11:02:54;;;;;;;;;;;1.50;99.90;;;;;;5031888;28;20409;-48
2022/01/22 11:05:34;;;;;;;;;;;1.60;99.90;;;;;;5015765;28;19909;-46
2022/01/22 11:08:09;;;;;;;;;;;1.60;99.90;;;;;;5032990;28;19909;-47
2022/01/22 11:10:35;;;;;;;;;;;1.60;99.90;;;;;;5033456;28;19905;-46
2022/01/22 11:13:00;;;;;;;;;;;1.60;99.90;;;;;;5033441;28;19916;-46
2022/01/22 11:15:27;;;;;;;;;;;1.70;99.90;;;;;;5015444;28;19959;-48
2022/01/22 11:17:54;;;;;;;;;;;1.80;99.90;;;;;;5032824;28;19914;-44
2022/01/22 11:20:19;;;;;;;;;;;1.70;99.90;;;;;;5032970;28;19905;-48
2022/01/22 11:22:46;;;;;;;;;;;1.80;99.90;;;;;;5032383;28;19987;-47
2022/01/22 11:25:11;;;;;;;;;;;1.80;99.90;;;;;;5033008;28;19959;-47
2022/01/22 11:27:37;;;;;;;;;;;1.80;99.90;;;;;;5032359;28;19905;-46
2022/01/22 11:30:05;;;;;;;;;;;1.70;99.90;;;;;;5032751;28;19905;-46
2022/01/22 11:32:33;;;;;;;;;;;1.80;99.90;;;;;;5032657;28;19928;-46
2022/01/22 11:35:01;;;;;;;;;;;1.90;99.90;;;;;;5049533;28;19916;-49
2022/01/22 11:37:29;;;;;;;;;;;2.00;99.90;;;;;;5052914;28;19954;-46
2022/01/22 11:40:10;;;;;;;;;;;2.00;99.90;;;;;;5052840;28;20012;-46
2022/01/22 11:42:57;;;;;;;;;;;1.80;99.90;;;;;;5053030;28;19909;-46
2022/01/22 11:45:24;;;;;;;;;;;1.80;99.90;;;;;;5053088;28;19905;-45
2022/01/22 11:48:08;;;;;;;;;;;1.80;99.90;;;;;;5052617;28;19916;-46
2022/01/22 11:50:33;;;;;;;;;;;1.90;99.90;;;;;;5052613;28;19905;-46
2022/01/22 11:53:19;;;;;;;;;;;1.90;99.90;;;;;;5052324;28;20421;-46
2022/01/22 11:56:04;;;;;;;;;;;1.90;99.90;;;;;;5052353;28;20367;-47
2022/01/22 11:58:30;;;;;;;;;;;1.90;99.90;;;;;;5052141;28;19920;-45
2022/01/22 12:00:55;;;;;;;;;;;1.90;99.90;;;;;;5052311;28;19904;-46
2022/01/22 12:03:21;;;;;;;;;;;1.90;99.90;;;;;;5052485;28;20342;-48
2022/01/22 12:05:52;;;;;;;;;;;1.80;99.90;;;;;;5052508;28;19909;-45
2022/01/22 12:08:18;;;;;;;;;;;1.80;99.90;;;;;;5034940;28;20246;-45
2022/01/22 12:14:26;;;;;;;;;;;1.70;99.90;;;;;;5034792;28;19905;-46
2022/01/22 12:16:16;;;;;;;;;;;1.90;99.90;;;;;;5055931;28;19916;-46
2022/01/22 12:18:49;;;;;;;;;;;1.80;99.90;;;;;;5056147;28;19944;-46
2022/01/22 12:21:32;;;;;;;;;;;1.80;99.90;;;;;;5055928;28;20000;-47
2022/01/22 12:23:58;;;;;;;;;;;1.80;99.90;;;;;;5055936;28;19917;-45
2022/01/22 12:26:37;;;;;;;;;;;1.80;99.90;;;;;;5055426;28;19927;-46
2022/01/22 12:29:22;;;;;;;;;;;1.80;99.90;;;;;;5048084;28;19949;-47
2022/01/22 12:32:06;;;;;;;;;;;1.90;99.90;;;;;;5037547;28;19905;-46
2022/01/22 12:34:50;;;;;;;;;;;2.00;99.90;;;;;;5054311;28;19919;-46
2022/01/22 12:37:19;;;;;;;;;;;2.00;99.90;;;;;;5051742;28;20464;-49
2022/01/22 12:39:49;;;;;;;;;;;2.10;99.90;;;;;;5055126;28;19913;-46
2022/01/22 12:42:25;;;;;;;;;;;2.10;99.90;;;;;;5054559;28;19920;-45
2022/01/22 12:44:56;;;;;;;;;;;2.10;99.90;;;;;;5052959;28;20007;-48
2022/01/22 12:47:22;;;;;;;;;;;2.00;99.90;;;;;;5031216;28;19920;-46
2022/01/22 12:49:58;;;;;;;;;;;2.10;99.90;;;;;;5054666;28;20271;-47
2022/01/22 12:52:25;;;;;;;;;;;2.10;99.90;;;;;;5047837;28;19947;-47
2022/01/22 12:54:56;;;;;;;;;;;2.00;99.90;;;;;;5053293;28;19917;-48
2022/01/22 12:57:24;;;;;;;;;;;2.00;99.90;;;;;;5035776;28;19924;-48
2022/01/22 12:59:50;;;;;;;;;;;2.00;99.90;;;;;;5043019;28;19916;-47
2022/01/22 13:02:16;;;;;;;;;;;2.10;99.90;;;;;;5035382;28;19952;-49
2022/01/22 13:04:55;;;;;;;;;;;2.10;99.90;;;;;;5054195;28;19941;-46
2022/01/22 13:07:20;;;;;;;;;;;2.10;99.90;;;;;;5055097;28;19939;-45
2022/01/22 13:09:47;;;;;;;;;;;2.10;99.90;;;;;;5050120;28;19913;-48
2022/01/22 13:12:13;;;;;;;;;;;2.00;99.90;;;;;;5049559;28;19912;-49
2022/01/22 13:14:38;;;;;;;;;;;2.00;99.90;;;;;;5054052;28;19924;-46
2022/01/22 13:17:10;;;;;;;;;;;1.90;99.90;;;;;;5053956;28;19924;-48
2022/01/22 13:19:37;;;;;;;;;;;2.00;99.90;;;;;;5051346;28;20329;-48
2022/01/22 13:22:03;;;;;;;;;;;2.00;99.90;;;;;;5053707;28;20267;-47
2022/01/22 13:24:29;;;;;;;;;;;2.10;99.90;;;;;;5045239;28;19944;-44
2022/01/22 13:27:00;;;;;;;;;;;2.10;99.90;;;;;;5049965;28;19913;-48
2022/01/22 13:29:40;;;;;;;;;;;2.00;99.90;;;;;;5054221;28;20019;-50
2022/01/22 13:32:20;;;;;;;;;;;2.10;99.90;;;;;;5040770;28;19980;-48
2022/01/22 13:37:56;;;;;;;;;;;2.10;99.90;;;;;;5044159;28;19967;-44
2022/01/22 13:40:38;;;;;;;;;;;2.20;99.90;;;;;;5038767;28;20330;-50
2022/01/22 13:48:27;;;;;;;;;;;2.20;99.90;;;;;;5044954;28;21296;-48
2022/01/22 13:50:53;;;;;;;;;;;2.30;99.90;;;;;;5045929;28;19913;-50
2022/01/22 13:53:18;;;;;;;;;;;2.10;99.90;;;;;;5045022;28;19913;-47
2022/01/22 13:55:55;;;;;;;;;;;2.10;99.90;;;;;;5048007;28;20267;-49
2022/01/22 13:58:20;;;;;;;;;;;2.10;99.90;;;;;;5046783;28;20035;-46
2022/01/22 14:00:46;;;;;;;;;;;2.10;99.90;;;;;;5035390;28;19913;-50
2022/01/22 14:03:31;;;;;;;;;;;2.20;99.90;;;;;;5047384;28;19916;-45
2022/01/22 14:05:57;;;;;;;;;;;2.10;99.90;;;;;;5035623;28;19920;-45
2022/01/22 14:08:29;;;;;;;;;;;2.10;99.90;;;;;;5052066;28;19915;-45
2022/01/22 14:11:24;;;;;;;;;;;2.10;99.90;;;;;;5053660;28;19930;-44
2022/01/22 14:14:02;;;;;;;;;;;2.00;99.90;;;;;;5040339;28;20363;-45
2022/01/22 14:16:29;;;;;;;;;;;2.00;99.90;;;;;;5053705;28;19913;-47
2022/01/22 14:18:54;;;;;;;;;;;2.10;99.90;;;;;;5053320;28;19974;-44
2022/01/22 14:21:22;;;;;;;;;;;2.00;99.90;;;;;;5054014;28;19963;-46
2022/01/22 14:23:50;;;;;;;;;;;2.10;99.90;;;;;;5053579;28;20287;-43
2022/01/22 14:26:26;;;;;;;;;;;2.10;99.90;;;;;;5053850;28;19913;-47
2022/01/22 14:29:04;;;;;;;;;;;2.00;99.90;;;;;;5053813;28;19909;-45
2022/01/22 14:31:34;;;;;;;;;;;2.20;99.90;;;;;;5054037;28;20375;-45
2022/01/22 14:34:01;;;;;;;;;;;2.20;99.90;;;;;;5035633;28;20276;-44
2022/01/22 14:36:31;;;;;;;;;;;2.20;99.90;;;;;;5053472;28;19913;-47
2022/01/22 14:43:47;;;;;;;;;;;2.10;99.90;;;;;;5053168;28;19916;-43
2022/01/22 14:44:50;;;;;;;;;;;2.00;99.90;;;;;;5053161;28;19962;-44
2022/01/22 14:47:16;;;;;;;;;;;2.00;99.90;;;;;;5034976;28;19908;-44
2022/01/22 14:49:42;;;;;;;;;;;2.10;99.90;;;;;;5053046;28;20338;-43
2022/01/22 14:52:09;;;;;;;;;;;2.20;99.90;;;;;;5035565;28;19909;-46
2022/01/22 14:54:42;;;;;;;;;;;2.10;99.90;;;;;;5052913;28;19914;-45
2022/01/22 14:57:08;;;;;;;;;;;2.10;99.90;;;;;;5051409;28;19913;-44
2022/01/22 14:59:35;;;;;;;;;;;2.20;99.90;;;;;;5035927;28;19960;-44
2022/01/22 15:02:01;;;;;;;;;;;2.10;99.90;;;;;;5017352;28;19956;-43
2022/01/22 15:04:27;;;;;;;;;;;2.00;99.90;;;;;;5051557;28;19953;-44
2022/01/22 15:06:53;;;;;;;;;;;2.00;99.90;;;;;;5049129;28;19908;-49
2022/01/22 15:09:19;;;;;;;;;;;2.00;99.90;;;;;;5048199;28;19921;-45
2022/01/22 15:11:44;;;;;;;;;;;2.00;99.90;;;;;;5015340;28;19959;-45
2022/01/22 15:14:10;;;;;;;;;;;2.00;99.90;;;;;;5016117;28;19917;-43
2022/01/22 15:16:45;;;;;;;;;;;2.10;99.90;;;;;;5033838;28;19918;-44
2022/01/22 15:19:16;;;;;;;;;;;2.10;99.90;;;;;;5034007;28;19913;-45
2022/01/22 15:21:42;;;;;;;;;;;2.00;99.90;;;;;;5046608;28;19927;-45
2022/01/22 15:24:08;;;;;;;;;;;1.90;99.90;;;;;;5052890;28;19921;-44
2022/01/22 15:26:34;;;;;;;;;;;2.00;99.90;;;;;;5048557;28;19920;-47
2022/01/22 15:29:00;;;;;;;;;;;2.00;99.90;;;;;;5039908;28;20383;-46
2022/01/22 15:31:32;;;;;;;;;;;2.00;99.90;;;;;;5051915;28;19935;-45
2022/01/22 15:36:32;;;;;;;;;;;2.00;99.90;;;;;;5049180;28;19962;-46
2022/01/22 15:38:58;;;;;;;;;;;2.00;99.90;;;;;;5031991;28;19917;-45
2022/01/22 15:41:23;;;;;;;;;;;2.00;99.90;;;;;;5036432;28;19919;-45
2022/01/22 15:43:49;;;;;;;;;;;1.90;99.90;;;;;;5042909;28;19909;-45
2022/01/22 15:46:15;;;;;;;;;;;1.80;99.90;;;;;;5052274;28;19913;-47
2022/01/22 15:48:42;;;;;;;;;;;1.80;99.90;;;;;;5053781;28;20274;-46
2022/01/22 15:51:07;;;;;;;;;;;1.90;99.90;;;;;;5046260;28;19909;-48
2022/01/22 15:53:34;;;;;;;;;;;1.90;99.90;;;;;;5043922;28;19916;-44
2022/01/22 15:55:59;;;;;;;;;;;1.90;99.90;;;;;;5044564;28;20003;-44
2022/01/22 15:58:25;;;;;;;;;;;1.90;99.90;;;;;;5047982;28;19964;-44
2022/01/22 16:00:50;;;;;;;;;;;1.90;99.90;;;;;;5054025;28;19909;-48
2022/01/22 16:03:18;;;;;;;;;;;1.90;99.90;;;;;;5040792;28;20019;-42
2022/01/22 16:05:45;;;;;;;;;;;1.90;99.90;;;;;;5055072;28;19913;-44
2022/01/22 16:08:11;;;;;;;;;;;1.90;99.90;;;;;;5052875;28;19970;-43
2022/01/22 16:10:37;;;;;;;;;;;1.90;99.90;;;;;;5053272;28;20043;-45
2022/01/22 16:13:02;;;;;;;;;;;1.90;99.90;;;;;;5048342;28;19940;-46
2022/01/22 16:15:29;;;;;;;;;;;1.90;99.90;;;;;;5055797;28;19924;-44
2022/01/22 16:17:55;;;;;;;;;;;1.80;99.90;;;;;;5052661;28;20240;-49
2022/01/22 16:20:22;;;;;;;;;;;1.90;99.90;;;;;;5035645;28;19920;-46
2022/01/22 16:22:48;;;;;;;;;;;1.80;99.90;;;;;;5035672;28;19913;-44